Time;durP1;ratioP1;P1;durP2;ratioP2;P2;SDS_P1;SDS_P2;PMS_P1;PMS_P2;Temp;Humidity;BMP_temperature;BMP_pressure;BME280_temperature;BME280_humidity;BME280_pressure;Samples;Min_cycle;Max_cycle;Signal;HPM_P1;HPM_P2
2023/04/17 00:01:25;;;;;;;;;;;;;;;6.91;76.45;102061.08;107811;1256;59618;-83
2023/04/17 00:03:53;;;;;;;;;;;;;;;6.93;76.59;102058.77;107954;1260;124774;-82
2023/04/17 00:06:20;;;;;;;;;;;;;;;6.92;76.55;102057.36;107769;1259;66847;-82
2023/04/17 00:08:47;;;;;;;;;;;;;;;6.90;76.57;102056.13;107745;1256;71390;-82
2023/04/17 00:11:14;;;;;;;;;;;;;;;6.90;76.74;102058.92;107654;1258;124769;-81
2023/04/17 00:13:42;;;;;;;;;;;;;;;6.88;76.71;102058.33;107801;1259;60216;-81
2023/04/17 00:16:11;;;;;;;;;;;;;;;6.88;76.82;102062.14;107669;1256;223790;-81
2023/04/17 00:18:38;;;;;;;;;;;;;;;6.90;76.96;102062.60;108558;1264;67354;-81
2023/04/17 00:21:05;;;;;;;;;;;;;;;6.93;77.00;102061.77;108262;1256;124842;-81
2023/04/17 00:23:32;;;;;;;;;;;;;;;6.92;77.04;102060.63;107501;1259;60557;-81
2023/04/17 00:25:59;;;;;;;;;;;;;;;6.93;77.18;102058.40;107615;1257;60051;-81
2023/04/17 00:28:26;;;;;;;;;;;;;;;6.91;77.24;102062.85;107893;1257;125633;-81
2023/04/17 00:30:53;;;;;;;;;;;;;;;6.87;77.28;102062.77;108073;1256;65825;-81
2023/04/17 00:33:20;;;;;;;;;;;;;;;6.84;77.48;102068.33;108016;1257;124873;-80
2023/04/17 00:35:48;;;;;;;;;;;;;;;6.84;77.53;102071.64;108118;1256;59277;-82
2023/04/17 00:38:15;;;;;;;;;;;;;;;6.80;77.71;102070.94;108768;1256;59584;-81
2023/04/17 00:40:44;;;;;;;;;;;;;;;6.78;77.80;102073.05;108768;1254;124982;-82
2023/04/17 00:43:11;;;;;;;;;;;;;;;6.74;77.90;102069.34;108797;1256;65899;-81
2023/04/17 00:45:38;;;;;;;;;;;;;;;6.76;78.08;102067.02;108634;1258;124922;-82
2023/04/17 00:48:06;;;;;;;;;;;;;;;6.71;78.09;102069.33;108769;1256;59997;-83
2023/04/17 00:50:33;;;;;;;;;;;;;;;6.67;78.25;102074.45;108862;1256;59486;-83
2023/04/17 00:53:00;;;;;;;;;;;;;;;6.61;78.36;102072.71;108589;1256;124947;-82
2023/04/17 00:55:27;;;;;;;;;;;;;;;6.61;78.51;102071.86;108657;1258;66898;-82
2023/04/17 00:57:55;;;;;;;;;;;;;;;6.65;78.66;102073.98;108685;1260;124717;-82
2023/04/17 01:00:22;;;;;;;;;;;;;;;6.68;78.73;102074.02;108609;1256;59898;-82
2023/04/17 01:02:49;;;;;;;;;;;;;;;6.70;78.74;102075.49;108756;1256;59870;-82
2023/04/17 01:05:16;;;;;;;;;;;;;;;6.68;78.75;102078.91;108587;1256;124761;-82
2023/04/17 01:07:43;;;;;;;;;;;;;;;6.67;78.81;102079.18;108791;1256;67292;-83
2023/04/17 01:10:10;;;;;;;;;;;;;;;6.65;78.92;102079.38;108693;1256;124782;-82
2023/04/17 01:12:37;;;;;;;;;;;;;;;6.63;78.94;102077.90;108758;1256;59298;-82
2023/04/17 01:15:05;;;;;;;;;;;;;;;6.61;79.02;102080.91;108698;1260;125171;-83
2023/04/17 01:17:31;;;;;;;;;;;;;;;6.57;79.11;102077.36;108667;1256;74684;-81
2023/04/17 01:19:58;;;;;;;;;;;;;;;6.58;79.30;102078.98;108728;1256;67427;-82
2023/04/17 01:22:25;;;;;;;;;;;;;;;6.59;79.38;102079.55;108743;1256;124762;-82
2023/04/17 01:24:52;;;;;;;;;;;;;;;6.57;79.38;102082.24;108698;1256;59428;-82
2023/04/17 01:27:21;;;;;;;;;;;;;;;6.55;79.40;102082.79;108609;1256;125124;-80
2023/04/17 01:29:48;;;;;;;;;;;;;;;6.52;79.42;102086.42;108835;1256;74747;-81
2023/04/17 01:32:15;;;;;;;;;;;;;;;6.50;79.45;102086.67;108818;1256;65786;-81
2023/04/17 01:34:42;;;;;;;;;;;;;;;6.50;79.64;102086.34;108781;1256;125140;-81
2023/04/17 01:37:09;;;;;;;;;;;;;;;6.53;79.64;102088.28;108801;1259;59445;-80
2023/04/17 01:39:36;;;;;;;;;;;;;;;6.57;79.76;102087.27;108647;1256;125395;-80
2023/04/17 01:42:03;;;;;;;;;;;;;;;6.62;79.79;102086.17;108667;1257;74479;-80
2023/04/17 01:44:36;;;;;;;;;;;;;;;6.59;79.65;102087.45;108739;1256;67060;-81
2023/04/17 01:47:03;;;;;;;;;;;;;;;6.59;79.65;102086.39;108703;1257;124646;-80
2023/04/17 01:49:30;;;;;;;;;;;;;;;6.61;79.75;102088.57;108879;1256;59894;-81
2023/04/17 01:51:57;;;;;;;;;;;;;;;6.68;79.86;102090.92;108490;1256;125082;-81
2023/04/17 01:54:24;;;;;;;;;;;;;;;6.70;79.80;102089.10;107635;1257;75203;-80
2023/04/17 01:56:52;;;;;;;;;;;;;;;6.69;79.70;102089.92;107876;1256;67589;-81
2023/04/17 01:59:18;;;;;;;;;;;;;;;6.70;79.89;102088.83;107744;1256;125312;-81
2023/04/17 02:01:47;;;;;;;;;;;;;;;6.70;79.77;102090.86;107981;1256;59667;-81
2023/04/17 02:04:14;;;;;;;;;;;;;;;6.69;79.87;102090.96;108065;1258;125583;-81
2023/04/17 02:06:42;;;;;;;;;;;;;;;6.66;79.78;102092.36;108274;1257;74840;-82
2023/04/17 02:09:09;;;;;;;;;;;;;;;6.64;79.79;102090.32;107703;1257;125451;-83
2023/04/17 02:11:36;;;;;;;;;;;;;;;6.62;79.78;102096.47;107554;1256;71561;-81
2023/04/17 02:14:03;;;;;;;;;;;;;;;6.59;79.98;102092.67;107525;1262;60898;-80
2023/04/17 02:16:30;;;;;;;;;;;;;;;6.60;80.10;102092.16;107590;1256;125988;-80
2023/04/17 02:18:57;;;;;;;;;;;;;;;6.61;80.12;102093.45;107643;1257;75045;-80
2023/04/17 02:21:26;;;;;;;;;;;;;;;6.60;80.13;102090.77;107780;1262;125258;-80
2023/04/17 02:23:53;;;;;;;;;;;;;;;6.57;80.09;102093.42;107947;1256;71635;-80
2023/04/17 02:26:24;;;;;;;;;;;;;;;6.55;80.13;102096.76;107508;1256;61496;-81
2023/04/17 02:28:51;;;;;;;;;;;;;;;6.49;80.12;102096.73;107416;1262;124698;-81
2023/04/17 02:31:18;;;;;;;;;;;;;;;6.48;80.38;102101.20;107454;1256;74815;-81
2023/04/17 02:33:46;;;;;;;;;;;;;;;6.47;80.34;102100.95;107473;1256;125416;-80
2023/04/17 02:36:12;;;;;;;;;;;;;;;6.47;80.47;102104.41;107476;1261;72726;-80
2023/04/17 02:38:39;;;;;;;;;;;;;;;6.46;80.52;102102.83;107501;1256;59810;-80
2023/04/17 02:41:06;;;;;;;;;;;;;;;6.48;80.54;102102.41;107353;1256;124609;-81
2023/04/17 02:43:33;;;;;;;;;;;;;;;6.47;80.59;102109.86;107392;1256;74767;-82
2023/04/17 02:46:00;;;;;;;;;;;;;;;6.43;80.59;102108.75;107364;1256;124631;-82
2023/04/17 02:48:27;;;;;;;;;;;;;;;6.41;80.61;102109.15;107609;1256;71120;-81
2023/04/17 02:50:54;;;;;;;;;;;;;;;6.38;80.69;102112.08;108740;1257;59567;-81
2023/04/17 02:53:21;;;;;;;;;;;;;;;6.37;80.82;102113.44;108599;1256;124867;-81
2023/04/17 02:55:48;;;;;;;;;;;;;;;6.38;80.90;102116.77;108756;1256;72090;-80
2023/04/17 02:58:15;;;;;;;;;;;;;;;6.38;81.00;102120.45;108696;1256;125234;-81
2023/04/17 03:00:42;;;;;;;;;;;;;;;6.39;81.10;102123.80;108888;1257;70467;-80
2023/04/17 03:03:09;;;;;;;;;;;;;;;6.38;81.11;102121.27;108642;1256;124699;-81
2023/04/17 03:05:36;;;;;;;;;;;;;;;6.39;81.19;102121.55;108225;1257;59621;-81
2023/04/17 03:08:03;;;;;;;;;;;;;;;6.38;81.11;102122.71;107918;1256;75223;-81
2023/04/17 03:10:30;;;;;;;;;;;;;;;6.36;81.17;102121.35;107845;1260;125901;-81
2023/04/17 03:12:57;;;;;;;;;;;;;;;6.35;81.35;102124.08;108044;1256;72723;-81
2023/04/17 03:15:24;;;;;;;;;;;;;;;6.35;81.33;102125.98;107809;1256;125857;-81
2023/04/17 03:17:51;;;;;;;;;;;;;;;6.37;81.45;102127.32;107882;1256;61208;-81
2023/04/17 03:20:18;;;;;;;;;;;;;;;6.37;81.38;102133.45;107864;1257;75211;-81
2023/04/17 03:22:45;;;;;;;;;;;;;;;6.38;81.52;102129.33;107787;1260;125695;-82
2023/04/17 03:25:12;;;;;;;;;;;;;;;6.39;81.40;102129.74;107857;1256;72691;-80
2023/04/17 03:27:39;;;;;;;;;;;;;;;6.38;81.49;102127.45;107694;1256;125419;-80
2023/04/17 03:30:09;;;;;;;;;;;;;;;6.39;81.46;102130.10;107687;1256;60147;-80
2023/04/17 03:32:36;;;;;;;;;;;;;;;6.40;81.53;102132.11;108937;1256;73062;-81
2023/04/17 03:35:04;;;;;;;;;;;;;;;6.39;81.52;102129.71;108758;1256;125183;-81
2023/04/17 03:37:31;;;;;;;;;;;;;;;6.37;81.50;102129.13;108878;1257;70704;-81
2023/04/17 03:39:58;;;;;;;;;;;;;;;6.39;81.59;102133.05;108822;1256;125375;-81
2023/04/17 03:42:25;;;;;;;;;;;;;;;6.41;81.65;102136.34;107856;1257;60743;-81
2023/04/17 03:44:52;;;;;;;;;;;;;;;6.46;81.72;102137.83;107371;1257;74697;-81
2023/04/17 03:47:19;;;;;;;;;;;;;;;6.47;81.79;102141.74;107774;1256;124512;-81
2023/04/17 03:49:46;;;;;;;;;;;;;;;6.50;81.70;102141.93;107861;1257;73308;-81
2023/04/17 03:52:14;;;;;;;;;;;;;;;6.52;81.74;102146.77;107561;1256;125173;-81
2023/04/17 03:54:41;;;;;;;;;;;;;;;6.54;81.70;102148.49;107574;1257;61279;-81
2023/04/17 03:57:08;;;;;;;;;;;;;;;6.57;81.74;102154.08;108679;1258;124689;-80
2023/04/17 03:59:35;;;;;;;;;;;;;;;6.56;81.68;102150.39;108803;1261;67077;-80
2023/04/17 04:02:02;;;;;;;;;;;;;;;6.58;81.69;102151.88;108282;1256;71202;-80
2023/04/17 04:04:29;;;;;;;;;;;;;;;6.59;81.67;102150.52;107667;1256;124824;-79
2023/04/17 04:07:00;;;;;;;;;;;;;;;6.60;81.74;102151.66;108003;1256;59570;-79
2023/04/17 04:09:27;;;;;;;;;;;;;;;6.64;81.67;102149.09;107713;1257;124735;-79
2023/04/17 04:11:54;;;;;;;;;;;;;;;6.63;81.67;102153.21;107638;1256;67102;-79
2023/04/17 04:14:21;;;;;;;;;;;;;;;6.60;81.61;102153.38;107789;1257;71733;-79
2023/04/17 04:16:48;;;;;;;;;;;;;;;6.59;81.61;102153.16;107484;1256;124637;-79
2023/04/17 04:19:15;;;;;;;;;;;;;;;6.61;81.71;102158.38;107435;1256;61397;-80
2023/04/17 04:21:42;;;;;;;;;;;;;;;6.61;81.71;102160.83;107358;1256;125602;-81
2023/04/17 04:24:15;;;;;;;;;;;;;;;6.61;81.69;102161.83;107591;1256;66681;-81
2023/04/17 04:26:42;;;;;;;;;;;;;;;6.61;81.71;102163.42;107732;1256;72526;-79
2023/04/17 04:29:10;;;;;;;;;;;;;;;6.66;81.83;102162.83;107920;1262;124702;-80
2023/04/17 04:31:37;;;;;;;;;;;;;;;6.67;81.76;102166.75;107848;1256;61120;-78
2023/04/17 04:34:04;;;;;;;;;;;;;;;6.68;81.80;102164.77;107617;1256;125302;-79
2023/04/17 04:36:35;;;;;;;;;;;;;;;6.71;81.76;102165.77;107934;1256;65889;-80
2023/04/17 04:39:04;;;;;;;;;;;;;;;6.74;81.82;102165.12;107461;1260;124754;-78
2023/04/17 04:41:32;;;;;;;;;;;;;;;6.74;81.70;102167.55;107573;1262;59403;-80
2023/04/17 04:44:02;;;;;;;;;;;;;;;6.77;81.90;102173.83;107446;1256;60476;-78
2023/04/17 04:46:33;;;;;;;;;;;;;;;6.79;81.77;102174.29;107332;1256;125288;-81
2023/04/17 04:49:00;;;;;;;;;;;;;;;6.83;81.93;102176.86;108948;1256;66964;-78
2023/04/17 04:51:27;;;;;;;;;;;;;;;6.88;81.93;102176.05;108818;1256;125260;-80
2023/04/17 04:53:54;;;;;;;;;;;;;;;6.89;81.80;102173.86;108937;1256;59557;-79
2023/04/17 04:56:22;;;;;;;;;;;;;;;6.92;81.83;102176.02;108309;1256;59856;-80
2023/04/17 04:58:49;;;;;;;;;;;;;;;6.91;81.63;102173.15;107545;1259;124847;-80
2023/04/17 05:01:17;;;;;;;;;;;;;;;6.91;81.71;102176.84;107422;1259;65898;-80
2023/04/17 05:03:44;;;;;;;;;;;;;;;6.94;81.74;102175.44;107222;1256;125054;-81
2023/04/17 05:06:12;;;;;;;;;;;;;;;6.96;81.78;102173.29;107300;1256;59721;-82
2023/04/17 05:08:40;;;;;;;;;;;;;;;7.01;81.68;102178.98;107675;1262;60233;-81
2023/04/17 05:11:09;;;;;;;;;;;;;;;7.04;81.77;102182.98;107386;1256;124939;-81
2023/04/17 05:13:36;;;;;;;;;;;;;;;7.08;81.74;102181.00;107670;1257;67643;-80
2023/04/17 05:16:03;;;;;;;;;;;;;;;7.11;81.61;102178.58;108629;1256;125151;-80
2023/04/17 05:18:30;;;;;;;;;;;;;;;7.16;81.68;102180.97;108907;1257;59253;-80
2023/04/17 05:20:57;;;;;;;;;;;;;;;7.19;81.56;102181.34;108777;1256;59266;-80
2023/04/17 05:23:24;;;;;;;;;;;;;;;7.23;81.49;102185.73;107432;1257;125112;-81
2023/04/17 05:25:51;;;;;;;;;;;;;;;7.23;81.42;102188.70;107789;1256;65327;-81
2023/04/17 05:28:18;;;;;;;;;;;;;;;7.21;81.11;102191.23;107599;1257;125296;-80
2023/04/17 05:30:45;;;;;;;;;;;;;;;7.21;81.26;102192.99;107748;1260;61320;-80
2023/04/17 05:33:12;;;;;;;;;;;;;;;7.25;81.30;102191.31;108648;1257;125649;-81
2023/04/17 05:35:39;;;;;;;;;;;;;;;7.31;81.29;102198.14;108161;1257;73379;-80
2023/04/17 05:38:06;;;;;;;;;;;;;;;7.31;80.97;102200.41;107636;1256;65670;-80
2023/04/17 05:40:33;;;;;;;;;;;;;;;7.29;80.91;102201.13;107695;1256;125550;-80
2023/04/17 05:43:08;;;;;;;;;;;;;;;7.33;81.02;102200.70;107650;1256;61238;-80
2023/04/17 05:45:35;;;;;;;;;;;;;;;7.37;80.96;102203.75;108707;1256;124727;-80
2023/04/17 05:48:02;;;;;;;;;;;;;;;7.44;80.91;102210.80;108778;1256;74739;-80
2023/04/17 05:50:29;;;;;;;;;;;;;;;7.43;80.75;102216.85;108962;1260;65501;-80
2023/04/17 05:52:56;;;;;;;;;;;;;;;7.44;80.73;102221.98;108811;1256;125229;-79
2023/04/17 05:55:23;;;;;;;;;;;;;;;7.50;80.89;102217.09;108978;1256;59428;-80
2023/04/17 05:57:50;;;;;;;;;;;;;;;7.53;80.74;102222.17;108789;1256;125250;-80
2023/04/17 06:00:17;;;;;;;;;;;;;;;7.58;80.79;102221.09;108852;1257;73461;-79
2023/04/17 06:02:44;;;;;;;;;;;;;;;7.65;80.82;102221.88;108871;1257;66109;-79
2023/04/17 06:05:11;;;;;;;;;;;;;;;7.72;80.77;102228.77;108842;1256;124574;-80
2023/04/17 06:07:39;;;;;;;;;;;;;;;7.82;80.72;102228.45;108937;1256;59588;-80
2023/04/17 06:10:07;;;;;;;;;;;;;;;7.88;80.47;102222.90;108709;1256;124646;-80
2023/04/17 06:12:35;;;;;;;;;;;;;;;7.96;80.38;102229.13;108769;1256;75229;-80
2023/04/17 06:15:03;;;;;;;;;;;;;;;7.96;80.06;102227.55;108423;1256;124825;-79
2023/04/17 06:17:31;;;;;;;;;;;;;;;7.98;80.04;102231.19;107625;1257;72662;-79
2023/04/17 06:19:58;;;;;;;;;;;;;;;7.99;79.85;102227.89;107517;1257;60198;-79
2023/04/17 06:22:25;;;;;;;;;;;;;;;8.04;79.95;102228.52;107661;1257;124649;-80
2023/04/17 06:25:09;;;;;;;;;;;;;;;8.09;79.86;102230.91;107640;1260;73300;-79
2023/04/17 06:27:42;;;;;;;;;;;;;;;8.22;79.99;102228.39;107426;1256;125115;-80
2023/04/17 06:30:10;;;;;;;;;;;;;;;8.39;79.85;102230.77;107531;1256;70501;-80
2023/04/17 06:32:42;;;;;;;;;;;;;;;8.54;79.75;102229.02;107550;1256;61428;-80
2023/04/17 06:35:10;;;;;;;;;;;;;;;8.70;79.53;102231.65;107711;1256;125142;-79
2023/04/17 06:37:37;;;;;;;;;;;;;;;8.88;79.29;102232.65;107395;1256;74657;-79
2023/04/17 06:40:04;;;;;;;;;;;;;;;8.96;78.70;102229.81;107323;1262;125434;-80
2023/04/17 06:42:34;;;;;;;;;;;;;;;9.06;78.25;102235.06;107940;1256;73238;-80
2023/04/17 06:45:01;;;;;;;;;;;;;;;9.15;77.87;102230.98;107934;1258;59320;-79
2023/04/17 06:47:28;;;;;;;;;;;;;;;9.29;77.71;102228.61;107979;1257;61260;-79
2023/04/17 06:49:56;;;;;;;;;;;;;;;9.41;77.24;102236.59;107919;1256;72670;-79
2023/04/17 06:52:23;;;;;;;;;;;;;;;9.45;76.76;102240.84;107410;1261;124692;-79
2023/04/17 06:54:52;;;;;;;;;;;;;;;9.46;76.52;102240.16;107339;1256;71388;-79
2023/04/17 06:57:20;;;;;;;;;;;;;;;9.56;76.60;102244.06;107256;1256;125195;-80
2023/04/17 06:59:47;;;;;;;;;;;;;;;9.67;76.29;102246.74;107424;1256;59720;-81
2023/04/17 07:02:15;;;;;;;;;;;;;;;9.72;76.10;102247.35;108015;1256;73879;-81
2023/04/17 07:04:42;;;;;;;;;;;;;;;9.80;75.88;102257.17;107841;1257;123904;-80
2023/04/17 07:07:09;;;;;;;;;;;;;;;9.76;75.27;102260.36;108087;1257;72434;-81
2023/04/17 07:09:36;;;;;;;;;;;;;;;9.70;75.06;102255.30;107664;1265;124612;-80
2023/04/17 07:12:04;;;;;;;;;;;;;;;9.76;75.16;102257.38;107804;1257;61022;-80
2023/04/17 07:14:32;;;;;;;;;;;;;;;9.80;75.03;102261.61;107576;1256;74649;-80
2023/04/17 07:16:59;;;;;;;;;;;;;;;9.83;74.95;102266.54;107608;1257;124704;-81
2023/04/17 07:19:26;;;;;;;;;;;;;;;9.97;75.10;102270.20;107896;1257;71371;-81
2023/04/17 07:21:53;;;;;;;;;;;;;;;10.06;74.76;102264.53;107845;1256;125417;-81
2023/04/17 07:24:20;;;;;;;;;;;;;;;10.08;74.41;102268.68;108044;1256;59908;-81
2023/04/17 07:26:48;;;;;;;;;;;;;;;10.11;74.33;102273.41;108287;1257;74661;-80
2023/04/17 07:29:15;;;;;;;;;;;;;;;10.22;74.58;102275.18;108382;1256;124762;-80
2023/04/17 07:31:42;;;;;;;;;;;;;;;10.38;74.34;102278.10;108516;1257;73162;-80
2023/04/17 07:34:09;;;;;;;;;;;;;;;10.45;73.72;102279.84;108054;1260;125406;-80
2023/04/17 07:36:36;;;;;;;;;;;;;;;10.36;73.13;102283.64;108077;1259;59645;-80
2023/04/17 07:39:05;;;;;;;;;;;;;;;10.31;72.98;102280.19;107820;1262;124990;-80
2023/04/17 07:41:32;;;;;;;;;;;;;;;10.34;73.13;102283.87;107842;1262;67047;-81
2023/04/17 07:44:02;;;;;;;;;;;;;;;10.45;73.29;102285.51;107642;1256;72692;-80
2023/04/17 07:46:29;;;;;;;;;;;;;;;10.67;73.19;102288.48;107710;1262;124339;-80
2023/04/17 07:48:56;;;;;;;;;;;;;;;10.83;72.54;102296.98;108130;1256;59504;-80
2023/04/17 07:51:23;;;;;;;;;;;;;;;10.84;72.11;102296.38;107788;1257;124567;-80
2023/04/17 07:53:50;;;;;;;;;;;;;;;10.82;71.97;102295.21;107621;1257;65999;-83
2023/04/17 07:56:21;;;;;;;;;;;;;;;10.82;71.98;102300.29;107698;1258;72682;-80
2023/04/17 07:58:50;;;;;;;;;;;;;;;10.79;71.63;102299.27;107548;1260;125126;-81
2023/04/17 08:01:17;;;;;;;;;;;;;;;10.70;71.42;102312.02;107544;1257;61219;-81
2023/04/17 08:03:44;;;;;;;;;;;;;;;10.58;71.55;102313.88;107299;1256;124645;-81
2023/04/17 08:06:11;;;;;;;;;;;;;;;10.45;71.25;102311.79;107444;1262;67093;-81
2023/04/17 08:08:38;;;;;;;;;;;;;;;10.28;71.34;102315.16;107952;1260;72673;-81
2023/04/17 08:11:05;;;;;;;;;;;;;;;10.23;71.54;102321.20;107817;1257;124247;-81
2023/04/17 08:13:32;;;;;;;;;;;;;;;10.25;71.55;102324.12;107702;1262;60186;-80
2023/04/17 08:16:00;;;;;;;;;;;;;;;10.16;71.28;102327.14;107673;1258;124886;-80
2023/04/17 08:18:36;;;;;;;;;;;;;;;10.19;71.45;102325.02;107642;1257;65844;-81
2023/04/17 08:21:03;;;;;;;;;;;;;;;10.26;71.34;102323.61;107581;1257;125706;-80
2023/04/17 08:23:30;;;;;;;;;;;;;;;10.33;71.17;102330.69;107803;1260;59841;-80
2023/04/17 08:25:57;;;;;;;;;;;;;;;10.38;71.24;102332.86;107740;1262;61518;-81
2023/04/17 08:28:24;;;;;;;;;;;;;;;10.38;70.53;102334.96;107664;1257;124674;-81
2023/04/17 08:30:51;;;;;;;;;;;;;;;10.36;70.37;102335.74;107802;1259;66821;-80
2023/04/17 08:33:18;;;;;;;;;;;;;;;10.43;70.32;102339.97;107836;1262;124167;-81
2023/04/17 08:35:45;;;;;;;;;;;;;;;10.59;70.47;102339.35;107890;1261;59980;-81
2023/04/17 08:38:12;;;;;;;;;;;;;;;10.68;70.47;102341.77;107816;1257;61129;-80
2023/04/17 08:40:41;;;;;;;;;;;;;;;10.83;70.26;102348.29;107358;1263;124895;-80
2023/04/17 08:43:12;;;;;;;;;;;;;;;10.83;69.68;102352.16;107858;1262;67042;-80
2023/04/17 08:45:42;;;;;;;;;;;;;;;10.73;69.24;102348.14;107804;1256;124919;-80
2023/04/17 08:48:12;;;;;;;;;;;;;;;10.67;69.21;102349.81;108005;1258;60972;-80
2023/04/17 08:50:39;;;;;;;;;;;;;;;10.69;69.09;102349.16;107937;1262;60482;-80
2023/04/17 08:53:06;;;;;;;;;;;;;;;10.71;69.18;102348.20;107443;1262;124261;-81
2023/04/17 08:55:33;;;;;;;;;;;;;;;10.84;69.14;102346.05;107645;1258;68599;-81
2023/04/17 08:58:25;;;;;;;;;;;;;;;10.90;68.73;102348.80;107460;1261;124713;-81
2023/04/17 09:00:52;;;;;;;;;;;;;;;10.88;68.32;102353.80;107721;1256;61311;-81
2023/04/17 09:03:18;;;;;;;;;;;;;;;10.92;68.10;102356.80;107609;1260;125530;-81
2023/04/17 09:05:47;;;;;;;;;;;;;;;10.95;68.06;102357.48;107721;1257;73414;-81
2023/04/17 09:08:15;;;;;;;;;;;;;;;11.05;68.22;102359.56;107897;1257;67352;-82
2023/04/17 09:10:42;;;;;;;;;;;;;;;11.11;67.95;102361.42;107324;1264;124289;-81
2023/04/17 09:13:09;;;;;;;;;;;;;;;11.14;67.69;102365.41;107526;1258;59820;-82
2023/04/17 09:15:36;;;;;;;;;;;;;;;11.01;67.00;102367.44;107684;1256;125275;-80
2023/04/17 09:18:03;;;;;;;;;;;;;;;10.95;67.11;102369.05;107792;1257;73512;-81
2023/04/17 09:20:30;;;;;;;;;;;;;;;11.05;67.44;102372.74;107511;1258;67409;-81
2023/04/17 09:22:58;;;;;;;;;;;;;;;11.17;67.30;102374.88;107569;1263;124401;-81
2023/04/17 09:25:26;;;;;;;;;;;;;;;11.24;67.00;102375.75;107818;1262;59659;-81
2023/04/17 09:27:54;;;;;;;;;;;;;;;11.14;66.82;102375.79;107886;1257;124846;-82
2023/04/17 09:30:23;;;;;;;;;;;;;;;11.08;66.82;102379.93;107904;1258;73205;-82
2023/04/17 09:32:54;;;;;;;;;;;;;;;10.95;66.38;102376.29;107847;1264;67078;-82
2023/04/17 09:35:25;;;;;;;;;;;;;;;10.94;66.58;102376.40;107505;1257;73201;-82
2023/04/17 09:37:52;;;;;;;;;;;;;;;11.05;66.58;102381.00;107825;1258;61355;-81
2023/04/17 09:40:20;;;;;;;;;;;;;;;11.11;66.51;102384.95;107654;1257;124484;-81
2023/04/17 09:42:53;;;;;;;;;;;;;;;11.24;66.65;102390.15;107609;1263;74739;-81
2023/04/17 09:45:21;;;;;;;;;;;;;;;11.34;66.09;102391.87;107779;1257;124926;-81
2023/04/17 09:47:48;;;;;;;;;;;;;;;11.33;65.66;102392.20;108043;1258;73279;-81
2023/04/17 09:50:16;;;;;;;;;;;;;;;11.44;66.05;102391.33;108345;1257;59436;-81
2023/04/17 09:52:45;;;;;;;;;;;;;;;11.50;65.70;102394.05;108099;1257;124922;-81
2023/04/17 09:55:13;;;;;;;;;;;;;;;11.48;65.21;102392.90;107985;1256;74207;-81
2023/04/17 09:57:40;;;;;;;;;;;;;;;11.48;65.11;102392.37;107680;1258;124333;-81
2023/04/17 10:00:13;;;;;;;;;;;;;;;11.52;65.29;102390.44;108827;1257;72706;-81
2023/04/17 10:02:40;;;;;;;;;;;;;;;11.60;65.16;102389.95;108621;1256;60044;-81
2023/04/17 10:05:09;;;;;;;;;;;;;;;11.64;64.68;102393.09;107537;1263;124418;-81
2023/04/17 10:07:36;;;;;;;;;;;;;;;11.60;64.80;102394.14;107831;1256;73420;-80
2023/04/17 10:10:08;;;;;;;;;;;;;;;11.65;65.11;102391.07;107770;1257;124719;-81
2023/04/17 10:12:38;;;;;;;;;;;;;;;11.80;65.07;102398.11;107834;1257;72377;-81
2023/04/17 10:15:07;;;;;;;;;;;;;;;11.83;64.69;102396.80;107793;1257;60157;-81
2023/04/17 10:17:34;;;;;;;;;;;;;;;11.75;64.47;102399.06;107713;1262;124530;-80
2023/04/17 10:20:16;;;;;;;;;;;;;;;11.63;64.53;102400.44;107909;1257;74919;-82
2023/04/17 10:22:43;;;;;;;;;;;;;;;11.61;64.84;102401.95;107578;1260;124166;-81
2023/04/17 10:25:11;;;;;;;;;;;;;;;11.67;64.81;102400.30;107342;1256;71289;-81
2023/04/17 10:27:41;;;;;;;;;;;;;;;11.71;64.50;102405.59;107281;1257;124347;-81
2023/04/17 10:30:15;;;;;;;;;;;;;;;11.63;64.13;102406.45;107555;1257;60846;-81
2023/04/17 10:32:43;;;;;;;;;;;;;;;11.70;64.42;102404.83;107716;1258;74584;-81
2023/04/17 10:35:16;;;;;;;;;;;;;;;11.76;64.12;102404.40;107598;1256;124769;-81
2023/04/17 10:37:46;;;;;;;;;;;;;;;11.67;63.67;102406.80;107665;1256;72707;-80
2023/04/17 10:40:19;;;;;;;;;;;;;;;11.52;63.76;102411.89;107532;1256;125184;-80
2023/04/17 10:43:03;;;;;;;;;;;;;;;11.32;63.51;102418.16;107714;1256;61369;-80
2023/04/17 10:45:53;;;;;;;;;;;;;;;11.15;64.00;102410.65;107661;1257;125007;-80
2023/04/17 10:48:21;;;;;;;;;;;;;;;11.23;64.31;102408.03;107900;1257;65820;-80
2023/04/17 10:50:48;;;;;;;;;;;;;;;11.37;64.43;102417.36;107948;1258;72941;-80
2023/04/17 10:53:38;;;;;;;;;;;;;;;11.38;64.25;102417.05;107550;1263;124276;-81
2023/04/17 10:56:08;;;;;;;;;;;;;;;11.43;64.26;102413.95;108059;1257;59576;-82
2023/04/17 10:58:38;;;;;;;;;;;;;;;11.50;63.96;102414.08;107690;1257;124887;-82
2023/04/17 11:01:10;;;;;;;;;;;;;;;11.42;63.82;102415.30;107813;1257;65756;-82
2023/04/17 11:03:37;;;;;;;;;;;;;;;11.47;64.17;102418.50;107547;1257;124694;-81
2023/04/17 11:06:04;;;;;;;;;;;;;;;11.51;63.99;102417.11;107542;1258;60276;-82
2023/04/17 11:08:31;;;;;;;;;;;;;;;11.50;63.89;102415.14;108065;1258;61199;-82
2023/04/17 11:10:58;;;;;;;;;;;;;;;11.48;63.77;102422.06;107830;1256;124158;-82
2023/04/17 11:13:30;;;;;;;;;;;;;;;11.52;63.85;102417.85;107630;1258;65786;-81
2023/04/17 11:15:57;;;;;;;;;;;;;;;11.52;63.49;102413.65;107567;1257;124210;-81
2023/04/17 11:18:25;;;;;;;;;;;;;;;11.42;63.23;102421.80;107945;1257;59585;-82
2023/04/17 11:20:52;;;;;;;;;;;;;;;11.44;63.68;102415.21;107911;1257;61302;-82
2023/04/17 11:23:19;;;;;;;;;;;;;;;11.56;63.36;102417.68;108664;1257;124921;-82
2023/04/17 11:25:46;;;;;;;;;;;;;;;11.62;63.36;102419.95;108727;1257;67351;-81
2023/04/17 11:28:13;;;;;;;;;;;;;;;11.74;63.49;102426.96;108779;1257;124574;-82
2023/04/17 11:30:43;;;;;;;;;;;;;;;11.84;63.36;102426.61;108916;1256;59291;-81
2023/04/17 11:33:11;;;;;;;;;;;;;;;11.93;63.46;102420.14;108896;1258;59278;-81
2023/04/17 11:35:39;;;;;;;;;;;;;;;12.12;63.50;102426.84;108809;1258;77744;-82
2023/04/17 11:38:07;;;;;;;;;;;;;;;12.23;63.18;102426.66;108792;1256;65598;-82
2023/04/17 11:40:34;;;;;;;;;;;;;;;12.13;62.59;102428.27;108667;1257;125075;-82
2023/04/17 11:43:07;;;;;;;;;;;;;;;12.20;62.96;102425.11;108912;1257;59042;-82
2023/04/17 11:45:34;;;;;;;;;;;;;;;12.37;62.79;102419.69;108676;1256;125353;-81
2023/04/17 11:48:01;;;;;;;;;;;;;;;12.46;62.57;102422.03;108820;1257;73161;-81
2023/04/17 11:50:29;;;;;;;;;;;;;;;12.43;62.41;102422.07;108819;1257;65229;-81
2023/04/17 11:52:59;;;;;;;;;;;;;;;12.38;61.84;102426.05;108691;1259;124801;-81
2023/04/17 11:55:30;;;;;;;;;;;;;;;12.39;61.76;102423.85;108895;1260;59763;-81
2023/04/17 11:57:57;;;;;;;;;;;;;;;12.35;61.33;102422.95;108833;1256;124203;-81
2023/04/17 12:00:31;;;;;;;;;;;;;;;12.30;61.58;102426.96;108861;1257;74769;-81
2023/04/17 12:02:58;;;;;;;;;;;;;;;12.26;61.55;102423.10;108897;1256;67081;-81
2023/04/17 12:05:26;;;;;;;;;;;;;;;12.27;61.24;102431.60;108693;1256;124651;-81
2023/04/17 12:08:00;;;;;;;;;;;;;;;12.20;61.53;102425.98;108241;1256;60784;-81
2023/04/17 12:10:41;;;;;;;;;;;;;;;12.31;61.63;102419.42;107986;1258;124847;-80
2023/04/17 12:13:08;;;;;;;;;;;;;;;12.38;61.65;102419.40;108087;1257;74516;-80
2023/04/17 12:15:39;;;;;;;;;;;;;;;12.39;61.17;102420.31;107533;1258;227127;-80
2023/04/17 12:18:08;;;;;;;;;;;;;;;12.22;60.73;102422.91;108086;1260;72452;-80
2023/04/17 12:20:35;;;;;;;;;;;;;;;12.17;61.15;102418.63;107964;1264;59484;-80
2023/04/17 12:23:03;;;;;;;;;;;;;;;12.18;60.82;102426.59;107800;1257;125109;-80
2023/04/17 12:25:30;;;;;;;;;;;;;;;12.10;61.00;102426.06;107514;1256;73397;-80
2023/04/17 12:27:58;;;;;;;;;;;;;;;12.11;60.93;102434.36;107814;1257;124891;-80
2023/04/17 12:30:25;;;;;;;;;;;;;;;11.96;60.93;102427.37;107667;1257;72478;-80
2023/04/17 12:32:52;;;;;;;;;;;;;;;11.97;61.14;102432.51;107639;1256;60589;-80